sensor_id;sensor_type;location;lat;lon;timestamp;P1;durP1;ratioP1;P2;durP2;ratioP2
68987;SDS011;56038;46.080;11.116;2022-10-16T00:01:51;68.68;;;40.00;;
68987;SDS011;56038;46.080;11.116;2022-10-16T00:06:54;73.22;;;41.47;;
68987;SDS011;56038;46.080;11.116;2022-10-16T00:11:56;68.93;;;39.42;;
68987;SDS011;56038;46.080;11.116;2022-10-16T00:16:58;63.83;;;38.97;;
68987;SDS011;56038;46.080;11.116;2022-10-16T00:22:01;68.70;;;41.17;;
68987;SDS011;56038;46.080;11.116;2022-10-16T00:27:03;65.43;;;39.60;;
68987;SDS011;56038;46.080;11.116;2022-10-16T00:32:05;66.40;;;40.38;;
68987;SDS011;56038;46.080;11.116;2022-10-16T00:37:08;70.55;;;41.70;;
68987;SDS011;56038;46.080;11.116;2022-10-16T00:42:11;62.78;;;38.92;;
68987;SDS011;56038;46.080;11.116;2022-10-16T00:47:18;70.38;;;40.03;;
68987;SDS011;56038;46.080;11.116;2022-10-16T00:52:25;66.78;;;38.38;;
68987;SDS011;56038;46.080;11.116;2022-10-16T00:57:27;68.03;;;40.75;;
68987;SDS011;56038;46.080;11.116;2022-10-16T01:02:29;60.67;;;38.85;;
68987;SDS011;56038;46.080;11.116;2022-10-16T01:07:36;65.95;;;40.90;;
68987;SDS011;56038;46.080;11.116;2022-10-16T01:17:52;61.33;;;37.88;;
68987;SDS011;56038;46.080;11.116;2022-10-16T01:23:01;66.68;;;41.13;;
68987;SDS011;56038;46.080;11.116;2022-10-16T01:28:10;67.45;;;40.03;;
68987;SDS011;56038;46.080;11.116;2022-10-16T01:33:14;63.55;;;40.20;;
68987;SDS011;56038;46.080;11.116;2022-10-16T01:38:21;70.00;;;39.05;;
68987;SDS011;56038;46.080;11.116;2022-10-16T01:43:31;68.68;;;38.97;;
68987;SDS011;56038;46.080;11.116;2022-10-16T01:48:36;70.20;;;39.92;;
68987;SDS011;56038;46.080;11.116;2022-10-16T01:53:40;64.75;;;40.75;;
68987;SDS011;56038;46.080;11.116;2022-10-16T01:58:46;63.53;;;40.97;;
68987;SDS011;56038;46.080;11.116;2022-10-16T02:03:51;66.35;;;41.83;;
68987;SDS011;56038;46.080;11.116;2022-10-16T02:08:58;72.63;;;40.95;;
68987;SDS011;56038;46.080;11.116;2022-10-16T02:14:02;68.25;;;40.95;;
68987;SDS011;56038;46.080;11.116;2022-10-16T02:19:06;68.78;;;40.80;;
68987;SDS011;56038;46.080;11.116;2022-10-16T02:24:10;73.45;;;42.95;;
68987;SDS011;56038;46.080;11.116;2022-10-16T02:29:19;69.05;;;40.30;;
68987;SDS011;56038;46.080;11.116;2022-10-16T02:34:25;61.65;;;38.17;;
68987;SDS011;56038;46.080;11.116;2022-10-16T02:39:28;59.88;;;37.75;;
68987;SDS011;56038;46.080;11.116;2022-10-16T02:44:32;56.30;;;36.13;;
68987;SDS011;56038;46.080;11.116;2022-10-16T02:49:34;60.42;;;37.00;;
68987;SDS011;56038;46.080;11.116;2022-10-16T02:54:36;58.10;;;35.03;;
68987;SDS011;56038;46.080;11.116;2022-10-16T02:59:39;56.47;;;34.85;;
68987;SDS011;56038;46.080;11.116;2022-10-16T03:04:41;61.17;;;35.95;;
68987;SDS011;56038;46.080;11.116;2022-10-16T03:09:43;60.42;;;37.40;;
68987;SDS011;56038;46.080;11.116;2022-10-16T03:14:46;59.25;;;37.65;;
68987;SDS011;56038;46.080;11.116;2022-10-16T03:19:48;67.10;;;39.35;;
68987;SDS011;56038;46.080;11.116;2022-10-16T03:24:50;63.45;;;37.08;;
68987;SDS011;56038;46.080;11.116;2022-10-16T03:29:53;70.10;;;39.08;;
68987;SDS011;56038;46.080;11.116;2022-10-16T03:34:54;59.53;;;37.08;;
68987;SDS011;56038;46.080;11.116;2022-10-16T03:39:57;68.90;;;38.58;;
68987;SDS011;56038;46.080;11.116;2022-10-16T03:45:00;61.00;;;39.55;;
68987;SDS011;56038;46.080;11.116;2022-10-16T03:50:02;73.07;;;39.05;;
68987;SDS011;56038;46.080;11.116;2022-10-16T03:55:06;66.47;;;39.45;;
68987;SDS011;56038;46.080;11.116;2022-10-16T04:00:11;68.32;;;39.20;;
68987;SDS011;56038;46.080;11.116;2022-10-16T04:05:13;65.00;;;40.25;;
68987;SDS011;56038;46.080;11.116;2022-10-16T04:10:16;65.63;;;38.88;;
68987;SDS011;56038;46.080;11.116;2022-10-16T04:15:19;64.03;;;39.53;;
68987;SDS011;56038;46.080;11.116;2022-10-16T04:20:21;66.55;;;38.47;;
68987;SDS011;56038;46.080;11.116;2022-10-16T04:25:22;64.28;;;37.22;;
68987;SDS011;56038;46.080;11.116;2022-10-16T04:30:26;72.07;;;41.40;;
68987;SDS011;56038;46.080;11.116;2022-10-16T04:35:28;70.50;;;40.35;;
68987;SDS011;56038;46.080;11.116;2022-10-16T04:40:30;65.10;;;37.20;;
68987;SDS011;56038;46.080;11.116;2022-10-16T04:45:34;65.90;;;40.25;;
68987;SDS011;56038;46.080;11.116;2022-10-16T04:50:36;73.28;;;41.03;;
68987;SDS011;56038;46.080;11.116;2022-10-16T04:55:38;66.75;;;37.58;;
68987;SDS011;56038;46.080;11.116;2022-10-16T05:00:41;62.72;;;38.15;;
68987;SDS011;56038;46.080;11.116;2022-10-16T05:05:43;63.67;;;39.17;;
68987;SDS011;56038;46.080;11.116;2022-10-16T05:10:45;65.82;;;39.55;;
68987;SDS011;56038;46.080;11.116;2022-10-16T05:15:48;61.30;;;38.40;;
68987;SDS011;56038;46.080;11.116;2022-10-16T05:20:50;71.03;;;39.35;;
68987;SDS011;56038;46.080;11.116;2022-10-16T05:25:53;67.15;;;38.38;;
68987;SDS011;56038;46.080;11.116;2022-10-16T05:30:57;66.35;;;40.58;;
68987;SDS011;56038;46.080;11.116;2022-10-16T05:36:00;63.03;;;38.92;;
68987;SDS011;56038;46.080;11.116;2022-10-16T05:41:03;64.95;;;39.22;;
68987;SDS011;56038;46.080;11.116;2022-10-16T05:46:07;64.72;;;38.22;;
68987;SDS011;56038;46.080;11.116;2022-10-16T05:51:09;69.57;;;39.97;;
68987;SDS011;56038;46.080;11.116;2022-10-16T05:56:12;67.25;;;40.55;;
68987;SDS011;56038;46.080;11.116;2022-10-16T06:01:16;68.60;;;39.17;;
68987;SDS011;56038;46.080;11.116;2022-10-16T06:06:19;65.05;;;40.50;;
68987;SDS011;56038;46.080;11.116;2022-10-16T06:11:24;66.15;;;40.35;;
68987;SDS011;56038;46.080;11.116;2022-10-16T06:16:28;71.32;;;43.42;;
68987;SDS011;56038;46.080;11.116;2022-10-16T06:21:29;70.18;;;42.20;;
68987;SDS011;56038;46.080;11.116;2022-10-16T06:26:31;62.00;;;38.88;;
68987;SDS011;56038;46.080;11.116;2022-10-16T06:31:34;69.68;;;39.97;;
68987;SDS011;56038;46.080;11.116;2022-10-16T06:36:36;65.63;;;40.50;;
68987;SDS011;56038;46.080;11.116;2022-10-16T06:41:39;72.20;;;44.30;;
68987;SDS011;56038;46.080;11.116;2022-10-16T06:46:42;74.88;;;43.10;;
68987;SDS011;56038;46.080;11.116;2022-10-16T06:51:44;75.20;;;42.30;;
68987;SDS011;56038;46.080;11.116;2022-10-16T06:56:45;71.18;;;41.22;;
68987;SDS011;56038;46.080;11.116;2022-10-16T07:01:48;66.00;;;38.45;;
68987;SDS011;56038;46.080;11.116;2022-10-16T07:06:50;64.75;;;39.00;;
68987;SDS011;56038;46.080;11.116;2022-10-16T07:11:52;65.10;;;39.55;;
68987;SDS011;56038;46.080;11.116;2022-10-16T07:16:55;66.82;;;38.92;;
68987;SDS011;56038;46.080;11.116;2022-10-16T07:21:57;64.88;;;40.08;;
68987;SDS011;56038;46.080;11.116;2022-10-16T07:26:59;65.47;;;39.95;;
68987;SDS011;56038;46.080;11.116;2022-10-16T07:32:02;67.18;;;40.05;;
68987;SDS011;56038;46.080;11.116;2022-10-16T07:37:04;64.63;;;38.65;;
68987;SDS011;56038;46.080;11.116;2022-10-16T07:42:06;65.75;;;40.17;;
68987;SDS011;56038;46.080;11.116;2022-10-16T07:47:09;85.25;;;51.67;;
68987;SDS011;56038;46.080;11.116;2022-10-16T07:52:11;65.90;;;39.60;;
68987;SDS011;56038;46.080;11.116;2022-10-16T07:57:13;64.03;;;38.40;;
68987;SDS011;56038;46.080;11.116;2022-10-16T08:02:20;60.47;;;38.72;;
68987;SDS011;56038;46.080;11.116;2022-10-16T08:07:22;62.67;;;39.05;;
68987;SDS011;56038;46.080;11.116;2022-10-16T08:12:24;59.80;;;38.30;;
68987;SDS011;56038;46.080;11.116;2022-10-16T08:17:27;54.08;;;36.30;;
68987;SDS011;56038;46.080;11.116;2022-10-16T08:22:29;59.50;;;36.72;;
68987;SDS011;56038;46.080;11.116;2022-10-16T08:27:31;54.70;;;35.05;;
68987;SDS011;56038;46.080;11.116;2022-10-16T08:32:34;54.13;;;34.08;;
68987;SDS011;56038;46.080;11.116;2022-10-16T08:37:36;59.33;;;34.38;;
68987;SDS011;56038;46.080;11.116;2022-10-16T08:42:45;53.03;;;33.67;;
68987;SDS011;56038;46.080;11.116;2022-10-16T08:48:02;52.92;;;33.38;;
68987;SDS011;56038;46.080;11.116;2022-10-16T08:53:14;53.22;;;35.20;;
68987;SDS011;56038;46.080;11.116;2022-10-16T08:58:20;49.25;;;33.35;;
68987;SDS011;56038;46.080;11.116;2022-10-16T09:03:32;54.60;;;35.15;;
68987;SDS011;56038;46.080;11.116;2022-10-16T09:08:47;52.17;;;33.90;;
68987;SDS011;56038;46.080;11.116;2022-10-16T09:14:00;50.60;;;34.05;;
68987;SDS011;56038;46.080;11.116;2022-10-16T09:19:12;53.58;;;34.88;;
68987;SDS011;56038;46.080;11.116;2022-10-16T09:24:23;54.85;;;36.00;;
68987;SDS011;56038;46.080;11.116;2022-10-16T09:34:30;48.47;;;34.25;;
68987;SDS011;56038;46.080;11.116;2022-10-16T09:39:43;53.08;;;34.25;;
68987;SDS011;56038;46.080;11.116;2022-10-16T09:44:47;46.55;;;32.65;;
68987;SDS011;56038;46.080;11.116;2022-10-16T09:54:55;44.97;;;30.73;;
68987;SDS011;56038;46.080;11.116;2022-10-16T09:59:58;42.63;;;29.90;;
68987;SDS011;56038;46.080;11.116;2022-10-16T10:05:02;39.17;;;30.73;;
68987;SDS011;56038;46.080;11.116;2022-10-16T10:10:18;43.92;;;31.70;;
68987;SDS011;56038;46.080;11.116;2022-10-16T10:15:22;38.03;;;28.92;;
68987;SDS011;56038;46.080;11.116;2022-10-16T10:20:27;37.17;;;28.52;;
68987;SDS011;56038;46.080;11.116;2022-10-16T10:25:39;37.78;;;29.25;;
68987;SDS011;56038;46.080;11.116;2022-10-16T10:30:53;37.83;;;28.55;;
68987;SDS011;56038;46.080;11.116;2022-10-16T10:36:05;36.90;;;27.98;;
68987;SDS011;56038;46.080;11.116;2022-10-16T10:41:25;36.55;;;28.83;;
68987;SDS011;56038;46.080;11.116;2022-10-16T10:46:39;34.30;;;27.95;;
68987;SDS011;56038;46.080;11.116;2022-10-16T10:51:47;37.63;;;29.52;;
68987;SDS011;56038;46.080;11.116;2022-10-16T10:57:06;34.58;;;26.70;;
68987;SDS011;56038;46.080;11.116;2022-10-16T11:02:13;37.85;;;27.75;;
68987;SDS011;56038;46.080;11.116;2022-10-16T11:07:23;34.22;;;28.35;;
68987;SDS011;56038;46.080;11.116;2022-10-16T11:12:29;38.63;;;27.27;;
68987;SDS011;56038;46.080;11.116;2022-10-16T11:17:33;36.78;;;27.55;;
68987;SDS011;56038;46.080;11.116;2022-10-16T11:22:42;37.15;;;28.33;;
68987;SDS011;56038;46.080;11.116;2022-10-16T11:27:49;32.45;;;25.65;;
68987;SDS011;56038;46.080;11.116;2022-10-16T11:38:27;36.47;;;27.70;;
68987;SDS011;56038;46.080;11.116;2022-10-16T11:43:34;32.60;;;26.10;;
68987;SDS011;56038;46.080;11.116;2022-10-16T11:48:41;37.30;;;26.38;;
68987;SDS011;56038;46.080;11.116;2022-10-16T11:53:53;31.40;;;23.40;;
68987;SDS011;56038;46.080;11.116;2022-10-16T11:59:00;32.80;;;23.40;;
68987;SDS011;56038;46.080;11.116;2022-10-16T12:04:14;35.40;;;26.73;;
68987;SDS011;56038;46.080;11.116;2022-10-16T12:09:26;28.05;;;22.45;;
68987;SDS011;56038;46.080;11.116;2022-10-16T12:14:35;32.75;;;23.17;;
68987;SDS011;56038;46.080;11.116;2022-10-16T12:19:40;30.55;;;23.52;;
68987;SDS011;56038;46.080;11.116;2022-10-16T12:24:43;26.42;;;19.25;;
68987;SDS011;56038;46.080;11.116;2022-10-16T12:29:44;23.97;;;18.17;;
68987;SDS011;56038;46.080;11.116;2022-10-16T12:34:46;23.52;;;18.83;;
68987;SDS011;56038;46.080;11.116;2022-10-16T12:39:50;25.38;;;18.20;;
68987;SDS011;56038;46.080;11.116;2022-10-16T12:44:54;25.55;;;18.35;;
68987;SDS011;56038;46.080;11.116;2022-10-16T12:49:57;15.35;;;12.60;;
68987;SDS011;56038;46.080;11.116;2022-10-16T12:55:00;16.67;;;11.98;;
68987;SDS011;56038;46.080;11.116;2022-10-16T13:00:04;11.23;;;9.88;;
68987;SDS011;56038;46.080;11.116;2022-10-16T13:05:15;13.15;;;8.85;;
68987;SDS011;56038;46.080;11.116;2022-10-16T13:10:31;9.20;;;8.25;;
68987;SDS011;56038;46.080;11.116;2022-10-16T13:15:45;9.43;;;8.30;;
68987;SDS011;56038;46.080;11.116;2022-10-16T13:21:01;9.35;;;8.40;;
68987;SDS011;56038;46.080;11.116;2022-10-16T13:26:13;10.23;;;9.02;;
68987;SDS011;56038;46.080;11.116;2022-10-16T13:31:24;11.93;;;8.50;;
68987;SDS011;56038;46.080;11.116;2022-10-16T13:36:27;12.13;;;7.97;;
68987;SDS011;56038;46.080;11.116;2022-10-16T13:41:31;18.20;;;13.20;;
68987;SDS011;56038;46.080;11.116;2022-10-16T13:46:32;21.33;;;16.40;;
68987;SDS011;56038;46.080;11.116;2022-10-16T13:51:34;27.05;;;19.92;;
68987;SDS011;56038;46.080;11.116;2022-10-16T13:56:38;26.55;;;18.40;;
68987;SDS011;56038;46.080;11.116;2022-10-16T14:01:41;33.22;;;23.60;;
68987;SDS011;56038;46.080;11.116;2022-10-16T14:06:45;32.67;;;23.17;;
68987;SDS011;56038;46.080;11.116;2022-10-16T14:11:52;38.78;;;26.85;;
68987;SDS011;56038;46.080;11.116;2022-10-16T14:16:56;42.67;;;27.00;;
68987;SDS011;56038;46.080;11.116;2022-10-16T14:21:58;46.63;;;31.65;;
68987;SDS011;56038;46.080;11.116;2022-10-16T14:32:26;47.63;;;30.98;;
68987;SDS011;56038;46.080;11.116;2022-10-16T14:37:28;54.92;;;33.90;;
68987;SDS011;56038;46.080;11.116;2022-10-16T14:42:32;46.00;;;30.42;;
68987;SDS011;56038;46.080;11.116;2022-10-16T14:47:34;51.55;;;33.17;;
68987;SDS011;56038;46.080;11.116;2022-10-16T14:52:47;52.58;;;33.83;;
68987;SDS011;56038;46.080;11.116;2022-10-16T14:57:50;51.38;;;32.65;;
68987;SDS011;56038;46.080;11.116;2022-10-16T15:02:52;55.17;;;33.38;;
68987;SDS011;56038;46.080;11.116;2022-10-16T15:07:54;57.80;;;36.47;;
68987;SDS011;56038;46.080;11.116;2022-10-16T15:12:57;57.55;;;35.15;;
68987;SDS011;56038;46.080;11.116;2022-10-16T15:17:59;63.28;;;38.20;;
68987;SDS011;56038;46.080;11.116;2022-10-16T15:23:03;59.65;;;38.22;;
68987;SDS011;56038;46.080;11.116;2022-10-16T15:28:08;58.60;;;36.55;;
68987;SDS011;56038;46.080;11.116;2022-10-16T15:33:12;70.20;;;39.13;;
68987;SDS011;56038;46.080;11.116;2022-10-16T15:38:16;65.05;;;38.30;;
68987;SDS011;56038;46.080;11.116;2022-10-16T15:43:20;71.50;;;42.03;;
68987;SDS011;56038;46.080;11.116;2022-10-16T15:48:22;66.15;;;39.53;;
68987;SDS011;56038;46.080;11.116;2022-10-16T15:53:24;67.35;;;39.25;;
68987;SDS011;56038;46.080;11.116;2022-10-16T15:58:28;69.22;;;41.15;;
68987;SDS011;56038;46.080;11.116;2022-10-16T16:03:30;68.65;;;39.78;;
68987;SDS011;56038;46.080;11.116;2022-10-16T16:08:33;70.10;;;42.45;;
68987;SDS011;56038;46.080;11.116;2022-10-16T16:13:37;70.82;;;41.80;;
68987;SDS011;56038;46.080;11.116;2022-10-16T16:18:39;70.35;;;41.88;;
68987;SDS011;56038;46.080;11.116;2022-10-16T16:23:47;75.70;;;42.78;;
68987;SDS011;56038;46.080;11.116;2022-10-16T16:28:50;67.43;;;39.35;;
68987;SDS011;56038;46.080;11.116;2022-10-16T16:33:52;69.03;;;40.08;;
68987;SDS011;56038;46.080;11.116;2022-10-16T16:38:54;67.20;;;40.15;;
68987;SDS011;56038;46.080;11.116;2022-10-16T16:44:00;73.32;;;42.05;;
68987;SDS011;56038;46.080;11.116;2022-10-16T16:49:03;69.07;;;41.10;;
68987;SDS011;56038;46.080;11.116;2022-10-16T16:54:05;67.07;;;41.35;;
68987;SDS011;56038;46.080;11.116;2022-10-16T16:59:11;69.15;;;40.25;;
68987;SDS011;56038;46.080;11.116;2022-10-16T17:04:14;73.88;;;43.80;;
68987;SDS011;56038;46.080;11.116;2022-10-16T17:09:17;75.00;;;42.42;;
68987;SDS011;56038;46.080;11.116;2022-10-16T17:14:20;74.07;;;42.42;;
68987;SDS011;56038;46.080;11.116;2022-10-16T17:19:21;70.70;;;40.83;;
68987;SDS011;56038;46.080;11.116;2022-10-16T17:24:23;68.55;;;39.60;;
68987;SDS011;56038;46.080;11.116;2022-10-16T17:29:26;72.13;;;43.08;;
68987;SDS011;56038;46.080;11.116;2022-10-16T17:34:28;71.78;;;41.25;;
68987;SDS011;56038;46.080;11.116;2022-10-16T17:39:30;60.85;;;37.55;;
68987;SDS011;56038;46.080;11.116;2022-10-16T17:44:33;64.97;;;37.65;;
68987;SDS011;56038;46.080;11.116;2022-10-16T17:49:35;67.00;;;37.78;;
68987;SDS011;56038;46.080;11.116;2022-10-16T17:54:37;64.65;;;38.40;;
68987;SDS011;56038;46.080;11.116;2022-10-16T17:59:40;63.22;;;38.95;;
68987;SDS011;56038;46.080;11.116;2022-10-16T18:04:42;64.82;;;38.25;;
68987;SDS011;56038;46.080;11.116;2022-10-16T18:09:44;59.95;;;36.03;;
68987;SDS011;56038;46.080;11.116;2022-10-16T18:14:47;60.80;;;37.15;;
68987;SDS011;56038;46.080;11.116;2022-10-16T18:19:49;56.58;;;33.75;;
68987;SDS011;56038;46.080;11.116;2022-10-16T18:24:51;51.53;;;31.75;;
68987;SDS011;56038;46.080;11.116;2022-10-16T18:29:54;43.88;;;28.88;;
68987;SDS011;56038;46.080;11.116;2022-10-16T18:34:56;47.25;;;30.33;;
68987;SDS011;56038;46.080;11.116;2022-10-16T18:39:58;47.35;;;30.55;;
68987;SDS011;56038;46.080;11.116;2022-10-16T18:45:01;44.42;;;29.77;;
68987;SDS011;56038;46.080;11.116;2022-10-16T18:50:04;50.10;;;29.90;;
68987;SDS011;56038;46.080;11.116;2022-10-16T18:55:07;48.17;;;29.80;;
68987;SDS011;56038;46.080;11.116;2022-10-16T19:00:14;44.08;;;30.02;;
68987;SDS011;56038;46.080;11.116;2022-10-16T19:05:16;45.03;;;29.13;;
68987;SDS011;56038;46.080;11.116;2022-10-16T19:10:19;42.40;;;28.33;;
68987;SDS011;56038;46.080;11.116;2022-10-16T19:15:22;45.38;;;30.15;;
68987;SDS011;56038;46.080;11.116;2022-10-16T19:20:24;43.83;;;29.40;;
68987;SDS011;56038;46.080;11.116;2022-10-16T19:25:26;45.90;;;29.88;;
68987;SDS011;56038;46.080;11.116;2022-10-16T19:30:29;47.42;;;29.15;;
68987;SDS011;56038;46.080;11.116;2022-10-16T19:35:31;46.78;;;29.80;;
68987;SDS011;56038;46.080;11.116;2022-10-16T19:40:34;48.13;;;30.17;;
68987;SDS011;56038;46.080;11.116;2022-10-16T19:45:37;46.03;;;30.73;;
68987;SDS011;56038;46.080;11.116;2022-10-16T19:50:44;43.90;;;30.80;;
68987;SDS011;56038;46.080;11.116;2022-10-16T19:55:46;42.95;;;29.83;;
68987;SDS011;56038;46.080;11.116;2022-10-16T20:00:50;44.83;;;29.80;;
68987;SDS011;56038;46.080;11.116;2022-10-16T20:05:53;51.83;;;30.83;;
68987;SDS011;56038;46.080;11.116;2022-10-16T20:10:57;50.65;;;31.77;;
68987;SDS011;56038;46.080;11.116;2022-10-16T20:16:01;60.40;;;35.47;;
68987;SDS011;56038;46.080;11.116;2022-10-16T20:21:07;52.33;;;32.10;;
68987;SDS011;56038;46.080;11.116;2022-10-16T20:26:10;51.22;;;32.10;;
68987;SDS011;56038;46.080;11.116;2022-10-16T20:31:14;49.72;;;31.45;;
68987;SDS011;56038;46.080;11.116;2022-10-16T20:36:21;51.88;;;32.97;;
68987;SDS011;56038;46.080;11.116;2022-10-16T20:41:25;52.45;;;33.70;;
68987;SDS011;56038;46.080;11.116;2022-10-16T20:46:29;52.47;;;32.92;;
68987;SDS011;56038;46.080;11.116;2022-10-16T20:51:30;54.70;;;33.47;;
68987;SDS011;56038;46.080;11.116;2022-10-16T20:56:33;50.88;;;32.50;;
68987;SDS011;56038;46.080;11.116;2022-10-16T21:01:38;53.30;;;34.63;;
68987;SDS011;56038;46.080;11.116;2022-10-16T21:06:41;50.03;;;32.60;;
68987;SDS011;56038;46.080;11.116;2022-10-16T21:11:44;53.97;;;33.35;;
68987;SDS011;56038;46.080;11.116;2022-10-16T21:16:47;53.47;;;33.53;;
68987;SDS011;56038;46.080;11.116;2022-10-16T21:21:49;55.35;;;32.33;;
68987;SDS011;56038;46.080;11.116;2022-10-16T21:26:51;54.13;;;34.22;;
68987;SDS011;56038;46.080;11.116;2022-10-16T21:31:55;51.25;;;32.28;;
68987;SDS011;56038;46.080;11.116;2022-10-16T21:36:59;54.05;;;33.88;;
68987;SDS011;56038;46.080;11.116;2022-10-16T21:42:01;54.47;;;33.53;;
68987;SDS011;56038;46.080;11.116;2022-10-16T21:47:04;51.97;;;32.28;;
68987;SDS011;56038;46.080;11.116;2022-10-16T21:52:06;52.85;;;32.85;;
68987;SDS011;56038;46.080;11.116;2022-10-16T21:57:08;51.45;;;32.35;;
68987;SDS011;56038;46.080;11.116;2022-10-16T22:02:11;52.15;;;33.13;;
68987;SDS011;56038;46.080;11.116;2022-10-16T22:07:13;52.08;;;33.67;;
68987;SDS011;56038;46.080;11.116;2022-10-16T22:12:14;60.22;;;35.92;;
68987;SDS011;56038;46.080;11.116;2022-10-16T22:17:20;50.97;;;32.88;;
68987;SDS011;56038;46.080;11.116;2022-10-16T22:22:22;53.00;;;33.67;;
68987;SDS011;56038;46.080;11.116;2022-10-16T22:27:23;53.08;;;33.83;;
68987;SDS011;56038;46.080;11.116;2022-10-16T22:32:26;52.45;;;32.17;;
68987;SDS011;56038;46.080;11.116;2022-10-16T22:37:28;51.50;;;32.53;;
68987;SDS011;56038;46.080;11.116;2022-10-16T22:42:30;54.40;;;32.28;;
68987;SDS011;56038;46.080;11.116;2022-10-16T22:47:33;51.63;;;32.47;;
68987;SDS011;56038;46.080;11.116;2022-10-16T22:52:35;55.15;;;32.65;;
68987;SDS011;56038;46.080;11.116;2022-10-16T22:57:38;51.78;;;33.33;;
68987;SDS011;56038;46.080;11.116;2022-10-16T23:02:41;55.35;;;33.55;;
68987;SDS011;56038;46.080;11.116;2022-10-16T23:07:43;55.72;;;33.78;;
68987;SDS011;56038;46.080;11.116;2022-10-16T23:12:45;54.45;;;33.25;;
68987;SDS011;56038;46.080;11.116;2022-10-16T23:17:48;57.42;;;34.45;;
68987;SDS011;56038;46.080;11.116;2022-10-16T23:22:50;61.72;;;36.80;;
68987;SDS011;56038;46.080;11.116;2022-10-16T23:27:52;54.90;;;34.80;;
68987;SDS011;56038;46.080;11.116;2022-10-16T23:32:56;57.17;;;35.30;;
68987;SDS011;56038;46.080;11.116;2022-10-16T23:37:57;55.78;;;34.00;;
68987;SDS011;56038;46.080;11.116;2022-10-16T23:42:59;60.55;;;35.92;;
68987;SDS011;56038;46.080;11.116;2022-10-16T23:48:02;53.00;;;34.40;;
68987;SDS011;56038;46.080;11.116;2022-10-16T23:53:04;59.20;;;35.47;;
68987;SDS011;56038;46.080;11.116;2022-10-16T23:58:06;56.35;;;34.55;;
